Time;durP1;ratioP1;P1;durP2;ratioP2;P2;SDS_P1;SDS_P2;PMS_P1;PMS_P2;Temp;Humidity;BMP_temperature;BMP_pressure;BME280_temperature;BME280_humidity;BME280_pressure;Samples;Min_cycle;Max_cycle;Signal;HPM_P1;HPM_P2
2023/03/21 00:00:25;;;;;;;19.77;11.25;;;;;;;9.15;100.00;100636.55;5061284;57;1142953;-68
2023/03/21 00:05:32;;;;;;;21.50;11.50;;;;;;;8.97;100.00;100637.36;5041253;57;1142822;-73
2023/03/21 00:10:37;;;;;;;15.73;9.77;;;;;;;8.85;100.00;100643.48;5041128;57;1142875;-69
2023/03/21 00:15:49;;;;;;;18.03;10.47;;;;;;;8.81;100.00;100645.95;5011562;57;1140996;-73
2023/03/21 00:21:01;;;;;;;12.47;6.47;;;;;;;8.76;100.00;100646.25;4899825;58;1143121;-69
2023/03/21 00:26:09;;;;;;;15.27;8.93;;;;;;;8.71;100.00;100634.31;5017781;57;1140895;-69
2023/03/21 00:31:14;;;;;;;14.37;8.73;;;;;;;8.59;100.00;100632.52;5013167;57;1140847;-68
2023/03/21 00:36:20;;;;;;;12.60;7.67;;;;;;;8.54;100.00;100635.48;4899588;58;1140756;-70
2023/03/21 00:41:26;;;;;;;12.13;7.47;;;;;;;8.54;100.00;100638.59;4959954;57;1140762;-70
2023/03/21 00:46:31;;;;;;;11.27;6.33;;;;;;;8.47;100.00;100631.55;5013083;57;1140898;-68
2023/03/21 00:51:37;;;;;;;12.63;6.53;;;;;;;8.41;100.00;100632.80;5019390;56;1140881;-68
2023/03/21 00:56:43;;;;;;;14.70;7.37;;;;;;;8.36;100.00;100626.17;5116563;56;1140929;-67
2023/03/21 01:01:49;;;;;;;10.50;7.13;;;;;;;8.32;100.00;100628.62;4955241;58;1140883;-69
2023/03/21 01:06:55;;;;;;;8.23;5.60;;;;;;;8.27;100.00;100631.52;5041127;57;1140919;-71
2023/03/21 01:12:01;;;;;;;10.27;6.27;;;;;;;8.27;100.00;100624.94;5099411;56;1138702;-70
2023/03/21 01:17:08;;;;;;;26.23;9.80;;;;;;;8.23;100.00;100627.42;5012429;57;1140892;-73
2023/03/21 01:22:13;;;;;;;11.60;7.70;;;;;;;8.17;100.00;100623.02;4963537;57;1194221;-72
2023/03/21 01:27:19;;;;;;;12.60;7.97;;;;;;;8.10;100.00;100625.20;4999156;57;1140848;-68
2023/03/21 01:32:26;;;;;;;11.63;7.10;;;;;;;8.07;100.00;100626.74;4867762;58;1140963;-72
2023/03/21 01:37:32;;;;;;;9.83;7.03;;;;;;;8.08;100.00;100623.17;4979334;58;1141022;-72
2023/03/21 01:42:39;;;;;;;10.72;6.75;;;;;;;8.06;100.00;100621.95;4980143;57;1138802;-70
2023/03/21 01:47:45;;;;;;;18.27;7.47;;;;;;;8.03;100.00;100616.03;4886612;59;1140731;-72
2023/03/21 01:53:05;;;;;;;11.17;7.20;;;;;;;8.02;100.00;100623.55;5010663;57;1140756;-69
2023/03/21 01:58:13;;;;;;;9.33;6.80;;;;;;;7.98;100.00;100624.69;5046596;56;1140847;-72
2023/03/21 02:03:28;;;;;;;12.20;7.08;;;;;;;7.94;100.00;100628.48;4932632;58;1138891;-69
2023/03/21 02:08:35;;;;;;;10.23;7.63;;;;;;;7.94;100.00;100628.02;5032495;57;1140832;-70
2023/03/21 02:13:43;;;;;;;16.07;9.08;;;;;;;7.95;100.00;100630.15;5081304;56;1141019;-73
2023/03/21 02:19:12;;;;;;;12.40;8.40;;;;;;;7.94;100.00;100618.80;4895457;58;1140797;-70
2023/03/21 02:24:22;;;;;;;9.95;7.67;;;;;;;7.93;100.00;100618.42;5013095;57;1140755;-71
2023/03/21 02:29:53;;;;;;;12.95;8.45;;;;;;;7.92;100.00;100622.00;4989795;57;1138689;-70
2023/03/21 02:35:24;;;;;;;8.95;6.90;;;;;;;7.89;100.00;100618.72;5012999;56;1140755;-67
2023/03/21 02:40:43;;;;;;;10.55;7.60;;;;;;;7.88;100.00;100620.97;5033489;57;1138846;-73
2023/03/21 02:45:56;;;;;;;16.77;9.53;;;;;;;7.87;100.00;100616.18;5013618;57;1140804;-72
2023/03/21 02:51:06;;;;;;;13.57;8.17;;;;;;;7.84;100.00;100613.73;5013669;57;1140794;-70
2023/03/21 02:56:13;;;;;;;14.27;7.33;;;;;;;7.82;100.00;100612.98;5126335;56;1182072;-68
2023/03/21 03:01:20;;;;;;;16.03;8.67;;;;;;;7.81;100.00;100614.40;5107161;56;1140870;-73
2023/03/21 03:06:32;;;;;;;12.47;7.75;;;;;;;7.76;100.00;100614.25;5107347;56;1140728;-71
2023/03/21 03:11:41;;;;;;;12.95;7.85;;;;;;;7.71;100.00;100617.64;5107001;56;1140958;-68
2023/03/21 03:17:18;;;;;;;14.43;8.37;;;;;;;7.70;100.00;100624.31;5071885;56;1140912;-73
2023/03/21 03:22:28;;;;;;;11.53;8.40;;;;;;;7.71;100.00;100624.69;5028047;56;1141140;-68
2023/03/21 03:27:39;;;;;;;14.20;9.37;;;;;;;7.70;100.00;100623.84;5033389;56;1140922;-67
2023/03/21 03:32:52;;;;;;;14.25;9.43;;;;;;;7.66;100.00;100618.86;5033388;56;1140926;-68
2023/03/21 03:38:01;;;;;;;9.98;6.90;;;;;;;7.66;100.00;100626.76;5033457;56;1140796;-70
2023/03/21 03:43:11;;;;;;;13.43;9.00;;;;;;;7.67;100.00;100616.61;5032103;56;1138852;-73
2023/03/21 03:48:28;;;;;;;17.77;8.37;;;;;;;7.64;100.00;100620.27;5012069;56;1140791;-69
2023/03/21 03:53:45;;;;;;;10.17;6.90;;;;;;;7.62;100.00;100617.39;5030337;56;1141012;-72
2023/03/21 03:58:51;;;;;;;16.23;9.57;;;;;;;7.60;100.00;100622.75;5047601;56;1141022;-79
2023/03/21 04:03:59;;;;;;;16.40;9.50;;;;;;;7.58;100.00;100626.42;5003796;56;1141028;-74
2023/03/21 04:09:07;;;;;;;13.57;9.47;;;;;;;7.59;100.00;100626.80;5003354;56;1140973;-71
2023/03/21 04:14:12;;;;;;;15.53;10.07;;;;;;;7.58;100.00;100626.42;4991047;56;1140987;-74
2023/03/21 04:19:20;;;;;;;18.27;9.23;;;;;;;7.57;100.00;100629.98;5080408;56;1149224;-77
2023/03/21 04:24:26;;;;;;;13.70;9.43;;;;;;;7.59;100.00;100627.64;5104403;56;1140971;-74
2023/03/21 04:29:32;;;;;;;14.68;9.45;;;;;;;7.56;100.00;100630.46;5098467;56;1140982;-71
2023/03/21 04:34:39;;;;;;;15.87;9.50;;;;;;;7.56;100.00;100633.56;5107151;56;1140899;-74
2023/03/21 04:39:48;;;;;;;11.30;7.97;;;;;;;7.55;100.00;100637.98;5107031;56;1140927;-73
2023/03/21 04:44:53;;;;;;;20.47;10.03;;;;;;;7.55;100.00;100641.92;5126911;56;1140966;-71
2023/03/21 04:50:00;;;;;;;19.50;10.67;;;;;;;7.52;100.00;100646.53;5106424;56;1142911;-66
2023/03/21 04:55:08;;;;;;;13.30;7.40;;;;;;;7.48;100.00;100649.85;5041714;56;1143128;-66
2023/03/21 05:00:15;;;;;;;17.90;9.27;;;;;;;7.48;100.00;100651.16;5042481;57;1140792;-71
2023/03/21 05:05:21;;;;;;;17.42;10.55;;;;;;;7.47;100.00;100649.47;5023203;57;1140790;-68
2023/03/21 05:10:27;;;;;;;16.62;10.13;;;;;;;7.44;100.00;100657.55;5022907;57;1143228;-68
2023/03/21 05:15:33;;;;;;;17.63;10.93;;;;;;;7.44;100.00;100669.39;5070769;56;1143331;-72
2023/03/21 05:20:44;;;;;;;18.30;11.07;;;;;;;7.44;100.00;100673.34;5105192;56;1143105;-73
2023/03/21 05:25:51;;;;;;;19.80;10.03;;;;;;;7.47;100.00;100669.68;5099919;56;1142944;-67
2023/03/21 05:31:01;;;;;;;17.47;10.97;;;;;;;7.50;100.00;100661.56;5124482;56;1142926;-67
2023/03/21 05:36:08;;;;;;;17.40;10.37;;;;;;;7.52;100.00;100664.95;5075238;56;1142986;-70
2023/03/21 05:41:16;;;;;;;15.13;10.43;;;;;;;7.51;100.00;100672.00;5106601;56;1142850;-68
2023/03/21 05:46:21;;;;;;;20.15;10.95;;;;;;;7.53;100.00;100671.91;5126966;56;1150882;-73
2023/03/21 05:51:29;;;;;;;19.62;12.03;;;;;;;7.55;100.00;100679.24;5102931;56;1143011;-68
2023/03/21 05:56:34;;;;;;;16.65;10.68;;;;;;;7.55;100.00;100684.51;5022531;57;1142935;-68
2023/03/21 06:01:42;;;;;;;26.82;14.18;;;;;;;7.56;100.00;100690.99;5022120;57;1143048;-72
2023/03/21 06:06:51;;;;;;;18.63;10.73;;;;;;;7.59;100.00;100689.96;5114871;56;1143036;-65
2023/03/21 06:11:57;;;;;;;18.47;11.07;;;;;;;7.59;100.00;100688.65;5106178;56;1143045;-68
2023/03/21 06:17:11;;;;;;;23.03;12.10;;;;;;;7.60;100.00;100691.19;5049201;56;1143123;-71
2023/03/21 06:22:18;;;;;;;19.43;11.80;;;;;;;7.56;100.00;100690.99;5060463;56;1143016;-78
2023/03/21 06:27:24;;;;;;;19.20;11.80;;;;;;;7.56;100.00;100688.83;5054719;56;1143265;-76
2023/03/21 06:32:32;;;;;;;23.13;11.80;;;;;;;7.61;100.00;100695.52;5011630;57;1143197;-75
2023/03/21 06:37:39;;;;;;;16.27;11.53;;;;;;;7.66;100.00;100699.15;5016978;57;1143058;-80
2023/03/21 06:42:45;;;;;;;20.33;12.27;;;;;;;7.72;100.00;100699.62;5050296;56;1143153;-78
2023/03/21 06:47:51;;;;;;;23.47;12.97;;;;;;;7.74;100.00;100702.16;5023985;56;1143023;-77
2023/03/21 06:53:04;;;;;;;;;;;;;;;7.71;100.00;100698.40;5043739;56;1142972;-79
2023/03/21 06:58:11;;;;;;;19.30;10.30;;;;;;;7.68;100.00;100703.38;5143114;56;976195;-74
2023/03/21 07:03:18;;;;;;;15.17;11.33;;;;;;;7.68;100.00;100699.43;5018662;56;1140986;-78
2023/03/21 07:08:24;;;;;;;17.43;11.13;;;;;;;7.73;100.00;100708.37;5006169;57;1142902;-81
2023/03/21 07:13:31;;;;;;;20.62;12.33;;;;;;;7.76;100.00;100711.66;5042474;55;1143051;-75
2023/03/21 07:18:39;;;;;;;14.70;10.40;;;;;;;7.80;100.00;100713.61;5101970;56;1142942;-77
2023/03/21 07:23:45;;;;;;;20.72;10.30;;;;;;;7.89;100.00;100714.83;5035296;56;1143086;-75
2023/03/21 07:28:51;;;;;;;19.33;10.57;;;;;;;7.94;100.00;100716.24;5014382;56;1142952;-79
2023/03/21 07:33:57;;;;;;;15.70;9.53;;;;;;;7.93;100.00;100719.81;4968325;56;1142865;-79
2023/03/21 07:39:03;;;;;;;16.87;10.20;;;;;;;7.98;100.00;100721.66;5016232;56;1140828;-72
2023/03/21 07:44:09;;;;;;;19.70;11.63;;;;;;;8.00;100.00;100729.00;5053271;56;1143077;-75
2023/03/21 07:49:15;;;;;;;16.13;12.40;;;;;;;8.08;100.00;100733.80;5033333;56;1143111;-76
2023/03/21 07:54:21;;;;;;;14.97;10.20;;;;;;;8.18;100.00;100737.52;4996014;56;1142941;-77
2023/03/21 07:59:27;;;;;;;18.70;10.75;;;;;;;8.23;100.00;100740.72;4975596;57;1143037;-78
2023/03/21 08:04:33;;;;;;;17.07;12.03;;;;;;;8.28;100.00;100745.67;4951670;57;1142879;-77
2023/03/21 08:09:39;;;;;;;16.97;11.68;;;;;;;8.36;100.00;100740.80;4939566;57;1143103;-75
2023/03/21 08:14:45;;;;;;;15.32;10.58;;;;;;;8.42;100.00;100746.97;4953494;56;1143031;-75
2023/03/21 08:19:51;;;;;;;13.57;9.53;;;;;;;8.55;100.00;100749.68;5039555;56;1143023;-81
2023/03/21 08:24:56;;;;;;;12.30;8.33;;;;;;;8.59;100.00;100752.00;5029769;56;1140969;-75
2023/03/21 08:30:03;;;;;;;11.73;7.87;;;;;;;8.65;100.00;100747.65;5029961;56;1140936;-80
2023/03/21 08:35:14;;;;;;;11.20;7.83;;;;;;;8.70;100.00;100756.11;5039698;56;1140934;-72
2023/03/21 08:40:20;;;;;;;17.20;9.10;;;;;;;8.73;100.00;100751.92;5001860;56;1140871;-79
2023/03/21 08:45:26;;;;;;;12.23;7.37;;;;;;;8.74;100.00;100758.89;5024910;56;1140954;-74
2023/03/21 08:50:32;;;;;;;12.28;9.33;;;;;;;8.75;100.00;100766.33;5053227;56;1141291;-79
2023/03/21 08:55:38;;;;;;;11.35;6.67;;;;;;;8.76;100.00;100768.87;5032756;56;1141035;-78
2023/03/21 09:00:44;;;;;;;12.70;9.00;;;;;;;8.86;100.00;100774.88;5033179;56;1141077;-75
2023/03/21 09:05:50;;;;;;;10.90;7.57;;;;;;;8.89;100.00;100774.17;5052821;56;1140873;-74
2023/03/21 09:10:56;;;;;;;9.67;6.97;;;;;;;8.90;100.00;100777.66;5033315;56;1140845;-77
2023/03/21 09:16:03;;;;;;;11.50;7.10;;;;;;;8.90;100.00;100778.98;4997923;56;1138702;-78
2023/03/21 09:21:12;;;;;;;16.87;9.50;;;;;;;8.95;100.00;100782.16;4971379;57;1141008;-78
2023/03/21 09:26:18;;;;;;;24.47;12.83;;;;;;;8.97;100.00;100781.12;5047360;56;1141020;-77
2023/03/21 09:31:24;;;;;;;12.17;7.97;;;;;;;9.05;100.00;100792.46;5106698;56;1143112;-75
2023/03/21 09:36:31;;;;;;;30.08;12.95;;;;;;;9.09;100.00;100790.84;5127010;56;1141040;-72
2023/03/21 09:41:46;;;;;;;19.30;9.63;;;;;;;9.23;100.00;100791.23;5106352;56;1142916;-78
2023/03/21 09:47:03;;;;;;;12.03;8.13;;;;;;;9.31;100.00;100791.58;5101986;56;1140799;-82
2023/03/21 09:52:38;;;;;;;13.63;8.37;;;;;;;9.49;100.00;100781.05;5043353;56;1140915;-75
2023/03/21 09:58:05;;;;;;;26.93;15.37;;;;;;;9.59;100.00;100787.88;4857401;58;1140959;-71
2023/03/21 10:03:18;;;;;;;12.03;8.10;;;;;;;9.59;100.00;100787.03;4876088;58;1143134;-75
2023/03/21 10:08:35;;;;;;;20.40;11.73;;;;;;;9.58;100.00;100782.23;4857417;58;1141052;-78
2023/03/21 10:13:48;;;;;;;18.63;9.63;;;;;;;9.64;100.00;100783.58;4857008;58;1142995;-78
2023/03/21 10:18:56;;;;;;;16.40;9.23;;;;;;;9.70;100.00;100784.48;4781557;59;1140941;-78
2023/03/21 10:24:02;;;;;;;11.30;7.83;;;;;;;9.78;100.00;100782.98;4810217;58;1141154;-77
2023/03/21 10:29:10;;;;;;;12.50;7.47;;;;;;;9.81;100.00;100784.58;4999157;56;1140837;-76
2023/03/21 10:34:20;;;;;;;8.10;6.80;;;;;;;9.91;100.00;100783.00;5106471;56;1140803;-79
2023/03/21 10:39:39;;;;;;;8.40;6.17;;;;;;;10.03;100.00;100787.88;5115228;56;1138782;-76
2023/03/21 10:44:49;;;;;;;10.47;8.40;;;;;;;10.15;100.00;100782.56;5088098;56;1140785;-79
2023/03/21 10:49:55;;;;;;;18.23;11.60;;;;;;;10.25;100.00;100780.59;5017731;57;1142931;-77
2023/03/21 10:55:31;;;;;;;10.17;6.73;;;;;;;10.32;100.00;100782.70;5104252;56;1145072;-77
2023/03/21 11:00:42;;;;;;;7.80;5.92;;;;;;;10.45;100.00;100780.85;5106625;56;1142997;-74
2023/03/21 11:05:48;;;;;;;11.90;7.37;;;;;;;10.42;100.00;100780.23;5107267;56;1140862;-78
2023/03/21 11:11:04;;;;;;;9.37;6.80;;;;;;;10.38;100.00;100778.78;5127095;56;1142825;-79
2023/03/21 11:16:20;;;;;;;9.67;6.73;;;;;;;10.33;100.00;100773.82;5068670;56;1140835;-75
2023/03/21 11:21:27;;;;;;;9.18;6.65;;;;;;;10.31;100.00;100773.56;5026947;56;1140794;-79
2023/03/21 11:26:36;;;;;;;9.73;6.40;;;;;;;10.26;100.00;100767.27;5121112;56;1140836;-77
2023/03/21 11:31:43;;;;;;;9.10;6.03;;;;;;;10.26;100.00;100769.91;5106883;56;1140793;-79
2023/03/21 11:36:51;;;;;;;16.15;8.73;;;;;;;10.33;100.00;100761.92;5107451;56;1141071;-75
2023/03/21 11:41:57;;;;;;;11.20;6.87;;;;;;;10.33;100.00;100754.47;5093835;56;1143072;-78
2023/03/21 11:47:03;;;;;;;10.40;8.17;;;;;;;10.34;100.00;100753.04;5022933;57;1142968;-78
2023/03/21 11:52:23;;;;;;;7.00;5.83;;;;;;;10.32;100.00;100748.34;5022566;57;1142960;-76
2023/03/21 11:57:51;;;;;;;14.30;7.90;;;;;;;10.34;100.00;100745.59;4944930;57;1140935;-78
2023/03/21 12:03:25;;;;;;;8.63;6.57;;;;;;;10.36;100.00;100745.84;4803440;59;1142906;-74
2023/03/21 12:08:59;;;;;;;12.53;7.12;;;;;;;10.31;100.00;100747.12;4904531;58;1140840;-74
2023/03/21 12:14:30;;;;;;;23.23;11.17;;;;;;;10.25;100.00;100741.79;4893563;58;1142990;-80
2023/03/21 12:19:57;;;;;;;10.28;6.90;;;;;;;10.22;100.00;100736.75;4924780;57;1145331;-76
2023/03/21 12:25:15;;;;;;;19.93;9.70;;;;;;;10.23;100.00;100731.33;4951710;57;1143189;-76
2023/03/21 12:30:41;;;;;;;19.27;9.30;;;;;;;10.28;100.00;100727.03;4940563;57;1143065;-74
2023/03/21 12:36:30;;;;;;;19.60;7.90;;;;;;;10.31;100.00;100724.17;4870448;57;1143056;-74
2023/03/21 12:41:44;;;;;;;11.33;6.57;;;;;;;10.30;100.00;100722.48;4837331;58;1143141;-78
2023/03/21 12:47:14;;;;;;;9.80;6.92;;;;;;;10.35;100.00;100719.03;4832029;58;1143132;-75
2023/03/21 12:52:27;;;;;;;8.53;7.13;;;;;;;10.40;100.00;100713.39;4895426;58;1140903;-79
2023/03/21 12:57:39;;;;;;;12.45;8.65;;;;;;;10.47;100.00;100706.23;4980715;56;1141174;-77
2023/03/21 13:03:13;;;;;;;9.60;8.23;;;;;;;10.51;100.00;100710.34;4893208;58;1143047;-73
2023/03/21 13:08:36;;;;;;;15.33;9.03;;;;;;;10.53;100.00;100693.88;4897416;58;1140853;-74
2023/03/21 13:13:51;;;;;;;8.17;7.23;;;;;;;10.59;100.00;100696.53;4920806;57;1143059;-79
2023/03/21 13:19:24;;;;;;;11.37;8.63;;;;;;;10.66;100.00;100695.61;4934881;57;1140850;-76
2023/03/21 13:24:51;;;;;;;16.44;8.94;;;;;;;10.61;100.00;100688.48;4923030;57;1143159;-75
2023/03/21 13:30:06;;;;;;;31.43;20.60;;;;;;;10.58;100.00;100682.94;4925843;57;1143094;-75
2023/03/21 13:35:27;;;;;;;15.47;11.27;;;;;;;10.57;100.00;100675.48;4823269;57;1145042;-80
2023/03/21 13:40:52;;;;;;;22.58;13.18;;;;;;;10.57;100.00;100669.34;4941308;57;1145118;-81
2023/03/21 13:46:10;;;;;;;14.77;10.60;;;;;;;10.57;100.00;100672.84;4774502;59;1145225;-76
2023/03/21 13:51:19;;;;;;;12.97;9.77;;;;;;;10.59;100.00;100664.80;4777950;59;1145030;-78
2023/03/21 13:56:25;;;;;;;12.47;9.08;;;;;;;10.60;100.00;100660.34;4859806;58;1146181;-75
2023/03/21 14:01:58;;;;;;;15.48;9.93;;;;;;;10.64;100.00;100662.66;4812670;58;1143080;-82
2023/03/21 14:07:17;;;;;;;18.70;11.45;;;;;;;10.72;100.00;100658.09;4853108;57;1143114;-77
2023/03/21 14:12:30;;;;;;;12.67;10.20;;;;;;;10.77;100.00;100662.08;4872491;57;1145028;-76
2023/03/21 14:17:37;;;;;;;72.97;24.90;;;;;;;10.78;100.00;100663.77;4901347;57;1145290;-75
2023/03/21 14:22:43;;;;;;;34.25;22.82;;;;;;;10.77;100.00;100662.56;4971566;57;1145005;-78
2023/03/21 14:27:59;;;;;;;27.40;14.47;;;;;;;10.77;100.00;100658.12;4853761;58;1145081;-80
2023/03/21 14:33:15;;;;;;;23.53;13.30;;;;;;;10.76;100.00;100653.78;4978158;57;1144892;-82
2023/03/21 14:38:25;;;;;;;26.73;15.97;;;;;;;10.78;100.00;100639.96;5034573;56;1144996;-75
2023/03/21 14:43:33;;;;;;;23.47;15.47;;;;;;;10.86;100.00;100632.27;4974346;57;1145088;-72
2023/03/21 14:48:38;;;;;;;39.18;21.07;;;;;;;10.90;100.00;100627.11;4927521;58;1145008;-74
2023/03/21 14:53:46;;;;;;;91.73;45.00;;;;;;;10.93;100.00;100623.38;4939725;58;1145237;-74
2023/03/21 14:58:52;;;;;;;28.83;16.40;;;;;;;10.98;100.00;100619.91;4868480;58;1145194;-80
2023/03/21 15:04:00;;;;;;;27.87;15.57;;;;;;;10.96;100.00;100615.22;4849598;58;1145109;-75
2023/03/21 15:09:06;;;;;;;29.30;16.20;;;;;;;10.99;100.00;100614.14;4891638;58;1145080;-78
2023/03/21 15:14:15;;;;;;;19.10;12.10;;;;;;;11.03;100.00;100611.59;5004002;57;1145186;-73
2023/03/21 15:19:25;;;;;;;30.00;18.07;;;;;;;11.06;100.00;100603.42;4843720;59;1145222;-80
2023/03/21 15:24:41;;;;;;;31.67;18.53;;;;;;;11.09;100.00;100605.84;4951684;57;1144962;-76
2023/03/21 15:29:50;;;;;;;20.75;14.50;;;;;;;11.12;100.00;100602.95;4931202;57;1145090;-79
2023/03/21 15:35:08;;;;;;;30.07;17.97;;;;;;;11.10;100.00;100603.07;4863664;59;1145141;-77
2023/03/21 15:40:21;;;;;;;18.17;12.37;;;;;;;11.06;100.00;100600.30;4979187;57;1145102;-78
2023/03/21 15:45:30;;;;;;;48.63;22.22;;;;;;;10.97;100.00;100588.27;5002891;57;1144880;-75
2023/03/21 15:50:52;;;;;;;35.64;20.06;;;;;;;10.94;100.00;100597.29;5023506;57;1145003;-73
2023/03/21 15:56:03;;;;;;;20.20;12.93;;;;;;;10.94;100.00;100598.61;5027809;57;1145168;-76
2023/03/21 16:01:21;;;;;;;61.87;36.33;;;;;;;10.95;100.00;100602.10;5012103;57;1145006;-80
2023/03/21 16:06:36;;;;;;;90.60;41.50;;;;;;;10.95;100.00;100613.53;5028613;57;1144961;-75
2023/03/21 16:11:51;;;;;;;161.30;75.77;;;;;;;10.91;100.00;100609.42;5032068;56;1145160;-79
2023/03/21 16:16:57;;;;;;;70.20;37.23;;;;;;;10.83;100.00;100604.74;5051073;57;1147069;-75
2023/03/21 16:22:06;;;;;;;104.53;51.77;;;;;;;10.78;100.00;100612.19;5018586;57;1145142;-75
2023/03/21 16:27:13;;;;;;;61.77;33.23;;;;;;;10.72;100.00;100606.51;4920652;58;1147074;-72
2023/03/21 16:32:19;;;;;;;98.73;57.17;;;;;;;10.71;100.00;100603.02;4923140;57;1144952;-78
2023/03/21 16:37:25;;;;;;;53.40;30.50;;;;;;;10.74;100.00;100600.14;4853460;58;1145182;-76
2023/03/21 16:42:30;;;;;;;53.07;30.43;;;;;;;10.75;100.00;100607.13;4932220;57;1145095;-77
2023/03/21 16:47:37;;;;;;;38.88;23.14;;;;;;;10.75;100.00;100616.86;4937683;57;1145181;-77
2023/03/21 16:52:42;;;;;;;24.32;16.15;;;;;;;10.73;100.00;100599.78;5065223;56;1145211;-74
2023/03/21 16:57:51;;;;;;;59.10;36.27;;;;;;;10.70;100.00;100608.42;5041052;57;1144979;-74
2023/03/21 17:03:01;;;;;;;23.00;12.88;;;;;;;10.67;100.00;100604.23;4959128;57;1144958;-76
2023/03/21 17:08:07;;;;;;;92.30;42.23;;;;;;;10.67;100.00;100611.33;4978557;57;1145029;-75
2023/03/21 17:13:13;;;;;;;33.33;19.60;;;;;;;10.61;100.00;100596.76;4981227;57;1145282;-75
2023/03/21 17:18:19;;;;;;;33.30;18.27;;;;;;;10.54;100.00;100595.05;4924645;58;1145078;-73
2023/03/21 17:23:25;;;;;;;30.20;18.47;;;;;;;10.50;100.00;100598.06;4934569;58;1145130;-71
2023/03/21 17:28:30;;;;;;;30.27;17.67;;;;;;;10.45;100.00;100595.77;5041013;57;1148588;-74
2023/03/21 17:33:36;;;;;;;32.17;19.48;;;;;;;10.39;100.00;100593.56;4853821;57;1145353;-72
2023/03/21 17:38:41;;;;;;;89.03;40.57;;;;;;;10.35;100.00;100596.10;4845592;59;1145054;-73
2023/03/21 17:43:47;;;;;;;87.37;41.58;;;;;;;10.37;100.00;100599.95;4967240;57;1145186;-72
2023/03/21 17:48:54;;;;;;;57.90;37.97;;;;;;;10.41;100.00;100597.42;4977257;57;1145131;-72
2023/03/21 17:54:00;;;;;;;33.07;21.90;;;;;;;10.43;100.00;100602.96;4977860;57;1145077;-73
2023/03/21 17:59:10;;;;;;;31.07;20.37;;;;;;;10.43;100.00;100598.99;4997201;56;1144964;-69
2023/03/21 18:04:15;;;;;;;37.83;21.83;;;;;;;10.40;100.00;100607.63;4978606;57;1145220;-67
2023/03/21 18:09:21;;;;;;;60.87;35.47;;;;;;;10.29;100.00;100609.77;4977550;57;1144933;-69
2023/03/21 18:14:27;;;;;;;54.73;27.50;;;;;;;10.26;100.00;100612.64;4988691;57;1145031;-71
2023/03/21 18:19:37;;;;;;;50.73;26.17;;;;;;;10.28;100.00;100613.84;4932590;58;1151474;-74
2023/03/21 18:24:40;;;;;;;54.75;25.20;;;;;;;10.33;100.00;100606.42;4941942;57;1145113;-74
2023/03/21 18:29:46;;;;;;;80.55;52.50;;;;;;;10.34;100.00;100612.92;4956594;57;1144997;-71
2023/03/21 18:34:52;;;;;;;75.67;49.13;;;;;;;10.34;100.00;100620.85;4892214;57;1145192;-69
2023/03/21 18:39:59;;;;;;;37.23;26.47;;;;;;;10.34;100.00;100625.30;4845747;58;1145025;-65
2023/03/21 18:45:08;;;;;;;53.13;25.50;;;;;;;10.32;100.00;100619.28;4901277;58;1144944;-67
2023/03/21 18:50:15;;;;;;;37.83;21.10;;;;;;;10.29;100.00;100610.25;4917396;58;1145100;-69
2023/03/21 18:55:22;;;;;;;29.80;18.70;;;;;;;10.28;100.00;100604.11;4856566;58;1145189;-74
2023/03/21 19:00:29;;;;;;;31.03;20.27;;;;;;;10.29;100.00;100605.80;4882668;58;1145159;-68
2023/03/21 19:05:34;;;;;;;33.80;20.00;;;;;;;10.29;100.00;100600.99;4988040;57;1152486;-72
2023/03/21 19:10:40;;;;;;;36.15;21.05;;;;;;;10.24;100.00;100603.97;4927000;58;1145148;-70
2023/03/21 19:15:46;;;;;;;25.97;18.07;;;;;;;10.18;100.00;100600.45;4895755;58;1145155;-73
2023/03/21 19:20:53;;;;;;;30.87;18.17;;;;;;;10.12;100.00;100593.81;4947254;58;1145083;-70
2023/03/21 19:26:00;;;;;;;36.77;18.83;;;;;;;10.10;100.00;100594.41;4862952;58;1145165;-69
2023/03/21 19:31:08;;;;;;;40.97;25.80;;;;;;;10.10;100.00;100594.41;4912060;58;1145133;-71
2023/03/21 19:36:14;;;;;;;32.70;21.43;;;;;;;10.09;100.00;100594.52;4901383;58;1145023;-74
2023/03/21 19:41:20;;;;;;;45.10;24.90;;;;;;;10.03;100.00;100584.41;4884304;58;1145135;-74
2023/03/21 19:46:28;;;;;;;33.73;21.87;;;;;;;9.94;100.00;100578.47;4936115;57;1145009;-67
2023/03/21 19:51:34;;;;;;;37.23;22.27;;;;;;;9.86;100.00;100581.22;4963095;58;1142912;-74
2023/03/21 19:56:40;;;;;;;36.45;23.52;;;;;;;9.85;100.00;100574.25;4992703;57;1142756;-73
2023/03/21 20:01:46;;;;;;;41.23;26.57;;;;;;;9.90;100.00;100565.15;4991865;57;1142945;-72
2023/03/21 20:06:57;;;;;;;37.50;25.30;;;;;;;9.91;100.00;100569.48;5078613;56;1142944;-72
2023/03/21 20:12:04;;;;;;;35.77;24.67;;;;;;;9.91;100.00;100566.36;4874176;58;1142850;-70
2023/03/21 20:17:09;;;;;;;37.80;24.57;;;;;;;9.87;100.00;100563.58;4967718;57;1142885;-73
2023/03/21 20:22:14;;;;;;;51.93;26.83;;;;;;;9.85;100.00;100562.84;5045513;56;1142875;-71
2023/03/21 20:27:23;;;;;;;45.73;24.83;;;;;;;9.78;100.00;100555.83;5033801;56;1142796;-70
2023/03/21 20:32:28;;;;;;;49.57;27.47;;;;;;;9.73;100.00;100551.39;4951012;58;1142815;-70
2023/03/21 20:37:35;;;;;;;48.13;28.83;;;;;;;9.74;100.00;100557.52;4970481;58;1151379;-72
2023/03/21 20:42:45;;;;;;;51.08;29.98;;;;;;;9.74;100.00;100549.11;4946999;58;1142792;-72
2023/03/21 20:47:51;;;;;;;48.52;28.80;;;;;;;9.72;100.00;100544.89;4946203;58;1142965;-73
2023/03/21 20:52:57;;;;;;;46.83;28.60;;;;;;;9.69;100.00;100551.71;5011552;57;1142827;-68
2023/03/21 20:58:03;;;;;;;47.73;28.60;;;;;;;9.69;100.00;100557.00;5055857;56;1142748;-67
2023/03/21 21:03:12;;;;;;;52.87;33.60;;;;;;;9.71;100.00;100565.17;5047220;56;1143080;-73
2023/03/21 21:08:18;;;;;;;47.87;28.77;;;;;;;9.70;100.00;100555.56;5069116;56;1143654;-67
2023/03/21 21:13:24;;;;;;;52.00;30.37;;;;;;;9.68;100.00;100556.63;5061253;56;1143014;-74
2023/03/21 21:18:30;;;;;;;52.80;31.20;;;;;;;9.65;100.00;100557.69;5035926;56;1143024;-70
2023/03/21 21:23:38;;;;;;;56.23;32.00;;;;;;;9.62;100.00;100553.14;5083024;56;1142811;-69
2023/03/21 21:28:45;;;;;;;53.13;31.55;;;;;;;9.56;100.00;100548.29;4901443;58;1142821;-74
2023/03/21 21:33:53;;;;;;;46.37;29.07;;;;;;;9.50;100.00;100552.20;5023517;56;1142781;-68
2023/03/21 21:38:59;;;;;;;54.97;31.33;;;;;;;9.48;100.00;100545.72;4970376;58;1142974;-72
2023/03/21 21:44:05;;;;;;;102.33;48.50;;;;;;;9.49;100.00;100550.04;5032113;57;1143018;-76
2023/03/21 21:49:11;;;;;;;272.33;99.90;;;;;;;9.51;100.00;100545.50;5004507;57;1144942;-68
2023/03/21 21:54:18;;;;;;;102.40;51.63;;;;;;;9.53;100.00;100536.99;4978898;57;1145002;-67
2023/03/21 21:59:24;;;;;;;63.20;39.93;;;;;;;9.55;100.00;100538.68;5026051;57;1144998;-74
2023/03/21 22:04:30;;;;;;;52.20;32.03;;;;;;;9.50;100.00;100535.89;5096208;56;1143090;-71
2023/03/21 22:09:36;;;;;;;54.10;32.83;;;;;;;9.49;100.00;100519.68;4949734;58;1200284;-69
2023/03/21 22:14:41;;;;;;;53.92;31.68;;;;;;;9.50;100.00;100516.56;5010928;57;1142818;-72
2023/03/21 22:19:47;;;;;;;73.50;42.53;;;;;;;9.55;100.00;100525.00;4920030;56;1142937;-71
2023/03/21 22:24:55;;;;;;;61.10;35.90;;;;;;;9.62;100.00;100526.73;4909595;57;1143146;-69
2023/03/21 22:30:06;;;;;;;62.03;37.00;;;;;;;9.62;100.00;100517.02;4979779;57;1142884;-70
2023/03/21 22:35:09;;;;;;;61.23;35.40;;;;;;;9.58;100.00;100511.58;5001478;57;1142940;-68
2023/03/21 22:40:16;;;;;;;53.47;33.00;;;;;;;9.56;100.00;100506.89;4975734;56;1142836;-72
2023/03/21 22:45:22;;;;;;;58.67;35.57;;;;;;;9.53;100.00;100503.14;4956675;56;1143021;-70
2023/03/21 22:50:29;;;;;;;59.87;37.17;;;;;;;9.51;100.00;100498.45;4953716;57;1142925;-73
2023/03/21 22:55:35;;;;;;;61.60;37.03;;;;;;;9.46;100.00;100498.81;4952082;57;1142886;-67